createdAt,value
2024-02-04T00:00:53.791Z,1010.51
2024-02-04T00:01:53.751Z,1010.46
2024-02-04T00:02:53.671Z,1010.50
2024-02-04T00:03:53.773Z,1010.48
2024-02-04T00:04:53.764Z,1010.52
2024-02-04T00:05:53.684Z,1010.48
2024-02-04T00:06:53.715Z,1010.42
2024-02-04T00:07:53.636Z,1010.45
2024-02-04T00:08:53.611Z,1010.45
2024-02-04T00:09:53.622Z,1010.39
2024-02-04T00:10:53.611Z,1010.42
2024-02-04T00:11:53.579Z,1010.39
2024-02-04T00:12:53.611Z,1010.33
2024-02-04T00:13:53.541Z,1010.32
2024-02-04T00:14:53.544Z,1010.34
2024-02-04T00:15:53.553Z,1010.35
2024-02-04T00:16:53.566Z,1010.34
2024-02-04T00:17:53.603Z,1010.29
2024-02-04T00:18:53.619Z,1010.39
2024-02-04T00:19:53.514Z,1010.35
2024-02-04T00:20:53.468Z,1010.34
2024-02-04T00:21:53.528Z,1010.36
2024-02-04T00:22:53.488Z,1010.29
2024-02-04T00:23:53.469Z,1010.29
2024-02-04T00:24:53.487Z,1010.27
2024-02-04T00:25:53.400Z,1010.24
2024-02-04T00:26:53.420Z,1010.19
2024-02-04T00:27:53.433Z,1010.12
2024-02-04T00:28:53.387Z,1010.08
2024-02-04T00:29:53.359Z,1010.14
2024-02-04T00:30:53.375Z,1010.08
2024-02-04T00:31:53.329Z,1010.07
2024-02-04T00:32:53.420Z,1010.07
2024-02-04T00:33:53.533Z,1010.08
2024-02-04T00:34:53.433Z,1010.09
2024-02-04T00:35:53.321Z,1010.18
2024-02-04T00:36:53.296Z,1010.14
2024-02-04T00:37:53.260Z,1010.20
2024-02-04T00:38:53.249Z,1010.25
2024-02-04T00:39:53.339Z,1010.30
2024-02-04T00:40:53.289Z,1010.29
2024-02-04T00:41:53.218Z,1010.30
2024-02-04T00:42:53.245Z,1010.34
2024-02-04T00:43:53.202Z,1010.27
2024-02-04T00:44:53.322Z,1010.24
2024-02-04T00:45:53.280Z,1010.21
2024-02-04T00:46:53.162Z,1010.26
2024-02-04T00:47:53.191Z,1010.22
2024-02-04T00:48:53.376Z,1010.27
2024-02-04T00:49:53.225Z,1010.23
2024-02-04T00:50:53.116Z,1010.26
2024-02-04T00:51:53.140Z,1010.32
2024-02-04T00:52:53.125Z,1010.21
2024-02-04T00:53:53.076Z,1010.19
2024-02-04T00:54:53.135Z,1010.12
2024-02-04T00:55:53.051Z,1010.15
2024-02-04T00:56:53.066Z,1010.18
2024-02-04T00:57:53.073Z,1010.22
2024-02-04T00:58:53.031Z,1010.19
2024-02-04T00:59:53.036Z,1010.11
2024-02-04T01:00:53.059Z,1010.16
2024-02-04T01:01:53.140Z,1010.20
2024-02-04T01:02:53.011Z,1010.14
2024-02-04T01:03:53.026Z,1010.14
2024-02-04T01:04:53.024Z,1010.17
2024-02-04T01:05:53.077Z,1010.12
2024-02-04T01:07:00.932Z,1010.15
2024-02-04T01:07:53.915Z,1010.23
2024-02-04T01:08:52.904Z,1010.22
2024-02-04T01:09:52.950Z,1010.19
2024-02-04T01:10:52.899Z,1010.24
2024-02-04T01:11:52.898Z,1010.26
2024-02-04T01:12:52.914Z,1010.23
2024-02-04T01:13:52.852Z,1010.21
2024-02-04T01:14:52.981Z,1010.19
2024-02-04T01:15:52.901Z,1010.19
2024-02-04T01:16:52.852Z,1010.16
2024-02-04T01:17:52.844Z,1010.18
2024-02-04T01:18:52.889Z,1010.15
2024-02-04T01:19:52.931Z,1010.19
2024-02-04T01:20:52.774Z,1010.14
2024-02-04T01:21:52.833Z,1010.14
2024-02-04T01:22:52.761Z,1010.11
2024-02-04T01:23:52.776Z,1010.13
2024-02-04T01:24:52.782Z,1010.06
2024-02-04T01:25:52.722Z,1010.11
2024-02-04T01:26:52.712Z,1010.11
2024-02-04T01:27:52.742Z,1010.21
2024-02-04T01:28:52.714Z,1010.15
2024-02-04T01:29:52.700Z,1010.16
2024-02-04T01:30:52.726Z,1010.24
2024-02-04T01:31:52.648Z,1010.22
2024-02-04T01:32:52.780Z,1010.21
2024-02-04T01:33:52.692Z,1010.11
2024-02-04T01:34:52.776Z,1010.15
2024-02-04T01:35:52.600Z,1010.14
2024-02-04T01:36:52.638Z,1010.14
2024-02-04T01:37:52.585Z,1010.14
2024-02-04T01:38:52.564Z,1010.18
2024-02-04T01:39:52.717Z,1010.18
2024-02-04T01:40:52.574Z,1010.16
2024-02-04T01:41:52.604Z,1010.22
2024-02-04T01:42:52.555Z,1010.18
2024-02-04T01:43:52.509Z,1010.14
2024-02-04T01:44:52.516Z,1010.19
2024-02-04T01:45:52.515Z,1010.20
2024-02-04T01:46:52.492Z,1010.14
2024-02-04T01:47:52.491Z,1010.13
2024-02-04T01:48:52.588Z,1010.13
2024-02-04T01:49:52.576Z,1010.17
2024-02-04T01:50:52.460Z,1010.12
2024-02-04T01:51:52.470Z,1010.12
2024-02-04T01:52:52.406Z,1010.08
2024-02-04T01:53:52.391Z,1010.07
2024-02-04T01:54:52.398Z,1010.10
2024-02-04T01:55:52.382Z,1010.07
2024-02-04T01:56:52.378Z,1010.05
2024-02-04T01:57:52.365Z,1010.07
2024-02-04T01:58:52.359Z,1009.95
2024-02-04T01:59:52.424Z,1010.00
2024-02-04T02:00:52.393Z,1009.94
2024-02-04T02:01:52.334Z,1009.99
2024-02-04T02:02:52.284Z,1010.00
2024-02-04T02:03:52.289Z,1009.87
2024-02-04T02:04:52.328Z,1009.87
2024-02-04T02:05:52.298Z,1009.92
2024-02-04T02:06:52.314Z,1009.88
2024-02-04T02:07:52.252Z,1009.83
2024-02-04T02:08:52.221Z,1009.82
2024-02-04T02:09:52.308Z,1009.88
2024-02-04T02:10:52.195Z,1009.89
2024-02-04T02:11:52.194Z,1009.85
2024-02-04T02:12:52.238Z,1009.82
2024-02-04T02:13:52.157Z,1009.85
2024-02-04T02:14:52.150Z,1009.85
2024-02-04T02:15:52.176Z,1009.85
2024-02-04T02:16:52.146Z,1009.86
2024-02-04T02:17:52.162Z,1009.85
2024-02-04T02:18:52.343Z,1009.81
2024-02-04T02:19:52.179Z,1009.89
2024-02-04T02:20:52.074Z,1009.86
2024-02-04T02:21:52.160Z,1009.96
2024-02-04T02:22:52.059Z,1009.84
2024-02-04T02:23:52.075Z,1009.86
2024-02-04T02:24:52.073Z,1009.84
2024-02-04T02:25:52.016Z,1009.94
2024-02-04T02:26:52.012Z,1009.87
2024-02-04T02:27:52.095Z,1009.92
2024-02-04T02:28:52.008Z,1009.93
2024-02-04T02:29:51.990Z,1009.92
2024-02-04T02:30:52.012Z,1009.93
2024-02-04T02:31:51.976Z,1009.93
2024-02-04T02:32:52.052Z,1009.90
2024-02-04T02:33:51.980Z,1010.03
2024-02-04T02:34:52.037Z,1010.01
2024-02-04T02:35:51.902Z,1009.93
2024-02-04T02:36:51.964Z,1009.96
2024-02-04T02:37:51.873Z,1009.93
2024-02-04T02:38:51.875Z,1009.93
2024-02-04T02:39:51.996Z,1009.99
2024-02-04T02:40:51.862Z,1009.95
2024-02-04T02:41:51.849Z,1009.87
2024-02-04T02:42:51.873Z,1009.88
2024-02-04T02:43:51.816Z,1009.90
2024-02-04T02:44:51.819Z,1009.89
2024-02-04T02:45:51.873Z,1009.87
2024-02-04T02:46:51.797Z,1009.91
2024-02-04T02:47:51.808Z,1009.88
2024-02-04T02:48:51.924Z,1009.94
2024-02-04T02:49:51.938Z,1009.90
2024-02-04T02:50:51.749Z,1009.95
2024-02-04T02:51:51.756Z,1009.96
2024-02-04T02:52:51.706Z,1010.00
2024-02-04T02:53:58.793Z,1009.98
2024-02-04T02:54:51.816Z,1009.98
2024-02-04T02:55:51.695Z,1009.90
2024-02-04T02:56:51.661Z,1009.93
2024-02-04T02:57:51.708Z,1009.93
2024-02-04T02:58:51.632Z,1009.92
2024-02-04T02:59:51.648Z,1009.85
2024-02-04T03:00:51.702Z,1009.92
2024-02-04T03:01:51.645Z,1009.93
2024-02-04T03:02:51.592Z,1009.92
2024-02-04T03:03:51.637Z,1009.90
2024-02-04T03:04:51.597Z,1009.93
2024-02-04T03:05:52.594Z,1009.90
2024-02-04T03:06:51.579Z,1009.93
2024-02-04T03:07:51.533Z,1009.80
2024-02-04T03:08:51.518Z,1009.94
2024-02-04T03:09:51.539Z,1009.92
2024-02-04T03:10:51.500Z,1009.91
2024-02-04T03:11:51.518Z,1009.89
2024-02-04T03:12:51.537Z,1009.86
2024-02-04T03:13:51.474Z,1009.82
2024-02-04T03:14:51.456Z,1009.79
2024-02-04T03:15:51.473Z,1009.82
2024-02-04T03:16:54.345Z,1009.82
2024-02-04T03:17:51.474Z,1009.80
2024-02-04T03:18:51.434Z,1009.90
2024-02-04T03:19:51.405Z,1009.85
2024-02-04T03:20:51.379Z,1009.76
2024-02-04T03:21:51.427Z,1009.76
2024-02-04T03:22:51.383Z,1009.86
2024-02-04T03:23:51.386Z,1009.89
2024-02-04T03:24:51.395Z,1009.84
2024-02-04T03:25:51.325Z,1009.84
2024-02-04T03:26:51.336Z,1009.83
2024-02-04T03:27:51.374Z,1009.80
2024-02-04T03:28:51.298Z,1009.76
2024-02-04T03:29:51.285Z,1009.79
2024-02-04T03:30:51.306Z,1009.79
2024-02-04T03:31:51.276Z,1009.77
2024-02-04T03:32:51.518Z,1009.74
2024-02-04T03:33:51.358Z,1009.80
2024-02-04T03:34:51.290Z,1009.76
2024-02-04T03:35:51.212Z,1009.78
2024-02-04T03:36:51.294Z,1009.80
2024-02-04T03:37:51.209Z,1009.75
2024-02-04T03:38:51.177Z,1009.74
2024-02-04T03:39:51.219Z,1009.69
2024-02-04T03:40:51.173Z,1009.59
2024-02-04T03:41:51.143Z,1009.68
2024-02-04T03:42:51.155Z,1009.68
2024-02-04T03:43:51.123Z,1009.66
2024-02-04T03:44:51.137Z,1009.59
2024-02-04T03:45:51.135Z,1009.56
2024-02-04T03:46:51.087Z,1009.60
2024-02-04T03:47:51.171Z,1009.53
2024-02-04T03:48:51.207Z,1009.62
2024-02-04T03:49:51.138Z,1009.57
2024-02-04T03:50:51.057Z,1009.59
2024-02-04T03:51:51.063Z,1009.57
2024-02-04T03:52:51.017Z,1009.54
2024-02-04T03:53:51.005Z,1009.60
2024-02-04T03:54:51.009Z,1009.65
2024-02-04T03:55:51.003Z,1009.64
2024-02-04T03:56:50.964Z,1009.62
2024-02-04T03:57:51.044Z,1009.67
2024-02-04T03:58:50.947Z,1009.61
2024-02-04T03:59:50.934Z,1009.65
2024-02-04T04:00:51.106Z,1009.66
2024-02-04T04:01:51.014Z,1009.67
2024-02-04T04:02:50.921Z,1009.72
2024-02-04T04:03:50.935Z,1009.67
2024-02-04T04:04:51.062Z,1009.77
2024-02-04T04:05:50.942Z,1009.72
2024-02-04T04:06:50.977Z,1009.76
2024-02-04T04:07:50.939Z,1009.69
2024-02-04T04:08:50.820Z,1009.68
2024-02-04T04:09:50.850Z,1009.67
2024-02-04T04:10:50.799Z,1009.75
2024-02-04T04:11:50.793Z,1009.73
2024-02-04T04:12:50.857Z,1009.73
2024-02-04T04:13:50.765Z,1009.75
2024-02-04T04:14:50.776Z,1009.73
2024-02-04T04:16:05.899Z,1009.72
2024-02-04T04:16:50.726Z,1009.65
2024-02-04T04:17:50.765Z,1009.61
2024-02-04T04:18:51.077Z,1009.58
2024-02-04T04:19:50.895Z,1009.61
2024-02-04T04:20:50.681Z,1009.57
2024-02-04T04:21:50.740Z,1009.57
2024-02-04T04:22:50.688Z,1009.59
2024-02-04T04:23:50.647Z,1009.63
2024-02-04T04:24:50.667Z,1009.58
2024-02-04T04:25:50.637Z,1009.61
2024-02-04T04:26:50.616Z,1009.60
2024-02-04T04:27:50.636Z,1009.68
2024-02-04T04:28:55.080Z,1009.68
2024-02-04T04:29:54.087Z,1009.68
2024-02-04T04:30:50.613Z,1009.66
2024-02-04T04:31:50.562Z,1009.73
2024-02-04T04:32:50.615Z,1009.71
2024-02-04T04:33:50.632Z,1009.67
2024-02-04T04:34:50.608Z,1009.66
2024-02-04T04:35:50.517Z,1009.65
2024-02-04T04:36:50.584Z,1009.67
2024-02-04T04:37:50.494Z,1009.70
2024-02-04T04:38:50.486Z,1009.66
2024-02-04T04:39:50.573Z,1009.70
2024-02-04T04:40:50.456Z,1009.71
2024-02-04T04:41:50.462Z,1009.72
2024-02-04T04:42:50.501Z,1009.80
2024-02-04T04:43:50.425Z,1009.74
2024-02-04T04:44:50.397Z,1009.79
2024-02-04T04:45:50.412Z,1009.76
2024-02-04T04:46:50.415Z,1009.80
2024-02-04T04:47:50.460Z,1009.77
2024-02-04T04:48:50.501Z,1009.81
2024-02-04T04:49:50.430Z,1009.83
2024-02-04T04:50:50.372Z,1009.81
2024-02-04T04:51:50.387Z,1009.77
2024-02-04T04:52:50.316Z,1009.83
2024-02-04T04:53:50.306Z,1009.81
2024-02-04T04:54:50.348Z,1009.75
2024-02-04T04:55:50.299Z,1009.77
2024-02-04T04:56:50.289Z,1009.79
2024-02-04T04:57:50.289Z,1009.76
2024-02-04T04:58:50.267Z,1009.70
2024-02-04T04:59:50.247Z,1009.72
2024-02-04T05:00:50.292Z,1009.82
2024-02-04T05:01:50.407Z,1009.75
2024-02-04T05:02:50.235Z,1009.67
2024-02-04T05:03:50.305Z,1009.68
2024-02-04T05:04:50.270Z,1009.66
2024-02-04T05:05:50.172Z,1009.65
2024-02-04T05:06:50.218Z,1009.62
2024-02-04T05:07:50.286Z,1009.61
2024-02-04T05:08:50.145Z,1009.59
2024-02-04T05:09:50.208Z,1009.57
2024-02-04T05:10:50.141Z,1009.71
2024-02-04T05:11:50.137Z,1009.70
2024-02-04T05:12:50.132Z,1009.59
2024-02-04T05:13:50.109Z,1009.57
2024-02-04T05:14:50.068Z,1009.61
2024-02-04T05:15:50.084Z,1009.61
2024-02-04T05:16:50.060Z,1009.62
2024-02-04T05:17:50.128Z,1009.63
2024-02-04T05:18:50.245Z,1009.63
2024-02-04T05:19:50.118Z,1009.58
2024-02-04T05:20:50.004Z,1009.61
2024-02-04T05:21:50.030Z,1009.66
2024-02-04T05:22:49.993Z,1009.65
2024-02-04T05:23:49.985Z,1009.66
2024-02-04T05:24:49.978Z,1009.53
2024-02-04T05:25:49.986Z,1009.64
2024-02-04T05:26:49.938Z,1009.68
2024-02-04T05:27:49.968Z,1009.65
2024-02-04T05:28:49.917Z,1009.68
2024-02-04T05:29:49.935Z,1009.68
2024-02-04T05:30:49.994Z,1009.64
2024-02-04T05:31:49.889Z,1009.74
2024-02-04T05:32:49.882Z,1009.80
2024-02-04T05:33:49.976Z,1009.69
2024-02-04T05:34:49.968Z,1009.67
2024-02-04T05:35:49.848Z,1009.60
2024-02-04T05:36:49.835Z,1009.66
2024-02-04T05:37:49.802Z,1009.56
2024-02-04T05:38:49.785Z,1009.54
2024-02-04T05:39:49.860Z,1009.50
2024-02-04T05:40:49.802Z,1009.40
2024-02-04T05:41:49.757Z,1009.46
2024-02-04T05:42:49.772Z,1009.58
2024-02-04T05:43:49.730Z,1009.48
2024-02-04T05:44:49.716Z,1009.47
2024-02-04T05:45:49.744Z,1009.42
2024-02-04T05:46:49.842Z,1009.35
2024-02-04T05:47:49.717Z,1009.52
2024-02-04T05:48:49.806Z,1009.43
2024-02-04T05:49:49.837Z,1009.35
2024-02-04T05:50:49.747Z,1009.40
2024-02-04T05:51:49.664Z,1009.29
2024-02-04T05:52:49.619Z,1009.37
2024-02-04T05:53:49.611Z,1009.27
2024-02-04T05:54:49.646Z,1009.35
2024-02-04T05:55:49.605Z,1009.27
2024-02-04T05:56:49.580Z,1009.20
2024-02-04T05:57:49.595Z,1009.22
2024-02-04T05:58:49.564Z,1009.21
2024-02-04T05:59:49.553Z,1009.23
2024-02-04T06:00:49.594Z,1009.26
2024-02-04T06:01:49.523Z,1009.27
2024-02-04T06:02:49.533Z,1009.32
2024-02-04T06:03:49.567Z,1009.40
2024-02-04T06:04:49.682Z,1009.38
2024-02-04T06:05:49.509Z,1009.35
2024-02-04T06:06:49.484Z,1009.36
2024-02-04T06:07:49.464Z,1009.39
2024-02-04T06:08:49.442Z,1009.37
2024-02-04T06:09:49.495Z,1009.39
2024-02-04T06:10:49.431Z,1009.44
2024-02-04T06:11:49.418Z,1009.39
2024-02-04T06:12:49.457Z,1009.43
2024-02-04T06:13:49.386Z,1009.43
2024-02-04T06:14:49.367Z,1009.43
2024-02-04T06:15:49.516Z,1009.44
2024-02-04T06:16:49.338Z,1009.41
2024-02-04T06:17:49.359Z,1009.40
2024-02-04T06:18:49.362Z,1009.44
2024-02-04T06:19:49.450Z,1009.38
2024-02-04T06:20:49.328Z,1009.30
2024-02-04T06:21:49.394Z,1009.25
2024-02-04T06:22:49.274Z,1009.15
2024-02-04T06:23:49.278Z,1009.06
2024-02-04T06:24:49.350Z,1009.09
2024-02-04T06:25:49.320Z,1009.12
2024-02-04T06:26:49.236Z,1009.05
2024-02-04T06:27:49.256Z,1009.09
2024-02-04T06:28:49.295Z,1009.05
2024-02-04T06:29:49.203Z,1008.99
2024-02-04T06:30:49.226Z,1009.02
2024-02-04T06:31:49.191Z,1009.00
2024-02-04T06:32:49.202Z,1008.95
2024-02-04T06:33:49.295Z,1008.90
2024-02-04T06:34:49.528Z,1008.90
2024-02-04T06:35:49.129Z,1008.91
2024-02-04T06:36:49.242Z,1008.85
2024-02-04T06:37:49.123Z,1008.83
2024-02-04T06:38:49.087Z,1008.96
2024-02-04T06:39:49.141Z,1008.97
2024-02-04T06:40:49.058Z,1009.01
2024-02-04T06:41:49.056Z,1009.09
2024-02-04T06:42:49.066Z,1009.07
2024-02-04T06:43:49.028Z,1009.13
2024-02-04T06:44:49.008Z,1009.05
2024-02-04T06:45:49.134Z,1009.04
2024-02-04T06:46:49.003Z,1009.07
2024-02-04T06:47:49.004Z,1009.03
2024-02-04T06:48:49.029Z,1009.04
2024-02-04T06:49:49.048Z,1008.91
2024-02-04T06:50:48.982Z,1008.85
2024-02-04T06:51:49.043Z,1008.91
2024-02-04T06:52:48.924Z,1008.92
2024-02-04T06:53:48.937Z,1008.88
2024-02-04T06:54:48.913Z,1008.84
2024-02-04T06:55:48.887Z,1008.82
2024-02-04T06:56:48.900Z,1008.84
2024-02-04T06:57:48.972Z,1008.79
2024-02-04T06:58:48.870Z,1008.81
2024-02-04T06:59:48.845Z,1008.84
2024-02-04T07:00:49.079Z,1008.83
2024-02-04T07:01:48.885Z,1008.80
2024-02-04T07:02:48.827Z,1008.78
2024-02-04T07:03:48.840Z,1008.74
2024-02-04T07:04:51.159Z,1008.69
2024-02-04T07:05:48.804Z,1008.76
2024-02-04T07:06:48.794Z,1008.78
2024-02-04T07:07:48.758Z,1008.74
2024-02-04T07:08:48.752Z,1008.72
2024-02-04T07:09:48.765Z,1008.79
2024-02-04T07:10:48.735Z,1008.79
2024-02-04T07:11:48.700Z,1008.85
2024-02-04T07:12:48.745Z,1008.87
2024-02-04T07:13:48.682Z,1008.87
2024-02-04T07:14:48.673Z,1008.92
2024-02-04T07:15:48.702Z,1008.73
2024-02-04T07:16:48.653Z,1008.80
2024-02-04T07:17:48.679Z,1008.89
2024-02-04T07:18:48.716Z,1008.93
2024-02-04T07:19:48.661Z,1008.91
2024-02-04T07:20:48.602Z,1008.92
2024-02-04T07:21:48.626Z,1008.84
2024-02-04T07:22:48.592Z,1008.86
2024-02-04T07:23:48.566Z,1008.92
2024-02-04T07:24:48.590Z,1008.97
2024-02-04T07:25:48.534Z,1009.05
2024-02-04T07:26:48.554Z,1009.11
2024-02-04T07:27:48.566Z,1009.07
2024-02-04T07:28:48.515Z,1009.13
2024-02-04T07:29:48.529Z,1009.13
2024-02-04T07:30:48.534Z,1009.05
2024-02-04T07:31:48.484Z,1009.15
2024-02-04T07:32:48.518Z,1009.19
2024-02-04T07:33:48.568Z,1009.17
2024-02-04T07:34:48.550Z,1009.21
2024-02-04T07:35:48.427Z,1009.04
2024-02-04T07:36:48.460Z,1009.02
2024-02-04T07:37:48.951Z,1009.06
2024-02-04T07:38:48.418Z,1009.04
2024-02-04T07:39:48.410Z,1009.03
2024-02-04T07:40:48.379Z,1009.08
2024-02-04T07:41:48.368Z,1009.03
2024-02-04T07:42:48.372Z,1009.01
2024-02-04T07:43:48.327Z,1009.05
2024-02-04T07:44:48.324Z,1009.06
2024-02-04T07:45:48.325Z,1009.03
2024-02-04T07:46:48.346Z,1009.06
2024-02-04T07:47:48.317Z,1009.03
2024-02-04T07:48:48.490Z,1009.07
2024-02-04T07:49:48.338Z,1009.03
2024-02-04T07:50:48.262Z,1009.13
2024-02-04T07:51:48.279Z,1008.95
2024-02-04T07:52:48.253Z,1009.03
2024-02-04T07:53:48.216Z,1008.97
2024-02-04T07:54:48.269Z,1009.00
2024-02-04T07:55:48.195Z,1008.97
2024-02-04T07:56:48.186Z,1008.97
2024-02-04T07:57:48.237Z,1009.04
2024-02-04T07:58:48.156Z,1009.00
2024-02-04T07:59:48.141Z,1008.99
2024-02-04T08:00:48.222Z,1009.01
2024-02-04T08:01:48.256Z,1009.00
2024-02-04T08:02:48.307Z,1009.11
2024-02-04T08:03:48.200Z,1009.00
2024-02-04T08:04:48.258Z,1009.03
2024-02-04T08:05:48.070Z,1009.00
2024-02-04T08:06:48.206Z,1009.00
2024-02-04T08:07:48.134Z,1009.03
2024-02-04T08:08:49.284Z,1008.92
2024-02-04T08:09:48.060Z,1009.02
2024-02-04T08:10:48.180Z,1008.95
2024-02-04T08:11:47.998Z,1009.04
2024-02-04T08:12:48.015Z,1009.04
2024-02-04T08:13:47.981Z,1009.04
2024-02-04T08:14:47.973Z,1009.04
2024-02-04T08:15:47.993Z,1008.99
2024-02-04T08:16:47.972Z,1009.03
2024-02-04T08:17:48.027Z,1009.09
2024-02-04T08:18:47.981Z,1008.99
2024-02-04T08:19:48.106Z,1009.04
2024-02-04T08:20:47.895Z,1009.02
2024-02-04T08:21:47.955Z,1009.03
2024-02-04T08:22:47.903Z,1009.07
2024-02-04T08:23:47.864Z,1009.05
2024-02-04T08:24:47.861Z,1009.14
2024-02-04T08:25:47.838Z,1009.07
2024-02-04T08:26:47.825Z,1009.07
2024-02-04T08:27:47.858Z,1008.95
2024-02-04T08:28:47.850Z,1009.05
2024-02-04T08:29:47.793Z,1008.95
2024-02-04T08:30:47.860Z,1008.97
2024-02-04T08:31:47.757Z,1009.04
2024-02-04T08:32:47.789Z,1008.92
2024-02-04T08:33:47.844Z,1008.97
2024-02-04T08:34:47.979Z,1009.00
2024-02-04T08:35:47.718Z,1009.00
2024-02-04T08:36:47.741Z,1008.82
2024-02-04T08:37:47.755Z,1008.92
2024-02-04T08:38:47.720Z,1008.95
2024-02-04T08:39:47.730Z,1008.96
2024-02-04T08:40:47.662Z,1008.88
2024-02-04T08:41:47.651Z,1008.87
2024-02-04T08:42:47.655Z,1008.94
2024-02-04T08:43:47.617Z,1008.90
2024-02-04T08:44:47.627Z,1009.02
2024-02-04T08:45:47.686Z,1008.97
2024-02-04T08:46:47.592Z,1008.92
2024-02-04T08:47:47.622Z,1008.97
2024-02-04T08:48:47.612Z,1009.07
2024-02-04T08:49:47.770Z,1008.96
2024-02-04T08:50:47.565Z,1009.00
2024-02-04T08:51:47.615Z,1009.05
2024-02-04T08:52:47.559Z,1008.89
2024-02-04T08:53:47.502Z,1008.98
2024-02-04T08:54:47.523Z,1008.85
2024-02-04T08:55:49.054Z,1008.96
2024-02-04T08:56:47.480Z,1008.89
2024-02-04T08:57:47.502Z,1008.98
2024-02-04T08:58:47.467Z,1008.95
2024-02-04T08:59:47.428Z,1009.05
2024-02-04T09:00:47.524Z,1008.85
2024-02-04T09:01:47.512Z,1008.85
2024-02-04T09:02:47.558Z,1008.89
2024-02-04T09:03:47.541Z,1008.89
2024-02-04T09:04:47.456Z,1008.89
2024-02-04T09:05:47.385Z,1008.91
2024-02-04T09:06:47.451Z,1008.86
2024-02-04T09:07:47.411Z,1008.97
2024-02-04T09:08:47.350Z,1008.90
2024-02-04T09:09:47.347Z,1008.90
2024-02-04T09:10:47.327Z,1008.94
2024-02-04T09:11:47.336Z,1008.97
2024-02-04T09:12:47.350Z,1008.98
2024-02-04T09:13:47.369Z,1009.02
2024-02-04T09:14:47.297Z,1008.99
2024-02-04T09:15:47.322Z,1008.98
2024-02-04T09:16:47.434Z,1008.97
2024-02-04T09:17:47.282Z,1008.98
2024-02-04T09:18:47.473Z,1008.96
2024-02-04T09:19:47.334Z,1008.97
2024-02-04T09:20:47.362Z,1008.84
2024-02-04T09:21:47.230Z,1008.89
2024-02-04T09:22:47.307Z,1008.84
2024-02-04T09:23:47.157Z,1008.78
2024-02-04T09:24:47.239Z,1008.79
2024-02-04T09:25:47.233Z,1008.83
2024-02-04T09:26:47.181Z,1008.85
2024-02-04T09:27:47.322Z,1008.87
2024-02-04T09:28:47.329Z,1008.82
2024-02-04T09:29:47.122Z,1008.85
2024-02-04T09:30:47.247Z,1008.95
2024-02-04T09:31:47.251Z,1008.91
2024-02-04T09:32:47.266Z,1008.91
2024-02-04T09:33:47.356Z,1008.89
2024-02-04T09:34:47.318Z,1008.92
2024-02-04T09:35:47.157Z,1008.89
2024-02-04T09:36:47.367Z,1008.91
2024-02-04T09:37:47.055Z,1008.94
2024-02-04T09:38:47.008Z,1008.92
2024-02-04T09:39:47.075Z,1008.88
2024-02-04T09:40:47.060Z,1008.89
2024-02-04T09:41:46.950Z,1008.92
2024-02-04T09:42:47.025Z,1008.95
2024-02-04T09:43:47.117Z,1008.86
2024-02-04T09:44:47.025Z,1008.87
2024-02-04T09:45:47.030Z,1008.91
2024-02-04T09:46:47.104Z,1008.89
2024-02-04T09:47:47.180Z,1008.92
2024-02-04T09:48:47.058Z,1008.98
2024-02-04T09:49:47.106Z,1008.93
2024-02-04T09:50:46.935Z,1008.98
2024-02-04T09:51:46.964Z,1009.02
2024-02-04T09:52:46.872Z,1009.00
2024-02-04T09:53:46.888Z,1009.01
2024-02-04T09:54:47.010Z,1008.99
2024-02-04T09:55:46.871Z,1008.91
2024-02-04T09:56:46.801Z,1008.94
2024-02-04T09:57:46.889Z,1008.88
2024-02-04T09:58:46.813Z,1008.85
2024-02-04T09:59:46.775Z,1008.95
2024-02-04T10:00:46.967Z,1008.92
2024-02-04T10:01:46.849Z,1008.89
2024-02-04T10:02:46.884Z,1008.93
2024-02-04T10:03:46.816Z,1008.96
2024-02-04T10:04:46.754Z,1008.87
2024-02-04T10:05:46.735Z,1008.99
2024-02-04T10:06:46.975Z,1008.88
2024-02-04T10:07:46.741Z,1008.96
2024-02-04T10:08:46.911Z,1009.00
2024-02-04T10:09:46.702Z,1009.04
2024-02-04T10:10:46.747Z,1009.08
2024-02-04T10:11:46.704Z,1009.09
2024-02-04T10:12:46.640Z,1009.03
2024-02-04T10:13:46.603Z,1009.10
2024-02-04T10:14:46.587Z,1009.06
2024-02-04T10:15:46.581Z,1009.06
2024-02-04T10:16:46.581Z,1009.13
2024-02-04T10:17:46.638Z,1009.09
2024-02-04T10:18:46.635Z,1009.06
2024-02-04T10:19:46.593Z,1008.98
2024-02-04T10:20:46.521Z,1009.01
2024-02-04T10:21:46.522Z,1008.88
2024-02-04T10:22:46.493Z,1009.00
2024-02-04T10:23:46.537Z,1008.91
2024-02-04T10:24:46.515Z,1008.86
2024-02-04T10:25:46.457Z,1008.84
2024-02-04T10:26:46.457Z,1008.88
2024-02-04T10:27:46.457Z,1008.89
2024-02-04T10:28:46.449Z,1008.83
2024-02-04T10:29:46.428Z,1009.00
2024-02-04T10:30:46.426Z,1008.87
2024-02-04T10:31:46.387Z,1008.84
2024-02-04T10:32:46.385Z,1008.83
2024-02-04T10:33:46.825Z,1008.83
2024-02-04T10:34:46.403Z,1008.91
2024-02-04T10:35:46.348Z,1008.86
2024-02-04T10:36:46.344Z,1008.90
2024-02-04T10:37:46.314Z,1008.98
2024-02-04T10:38:46.300Z,1009.02
2024-02-04T10:39:46.336Z,1009.00
2024-02-04T10:40:46.303Z,1009.02
2024-02-04T10:41:46.269Z,1009.02
2024-02-04T10:42:46.290Z,1008.97
2024-02-04T10:43:46.237Z,1009.09
2024-02-04T10:44:46.538Z,1008.96
2024-02-04T10:45:46.257Z,1009.00
2024-02-04T10:46:46.210Z,1009.10
2024-02-04T10:47:46.203Z,1008.96
2024-02-04T10:48:46.561Z,1008.90
2024-02-04T10:49:46.358Z,1008.87
2024-02-04T10:50:46.191Z,1008.86
2024-02-04T10:51:46.162Z,1008.84
2024-02-04T10:52:46.141Z,1008.85
2024-02-04T10:53:46.131Z,1008.91
2024-02-04T10:54:46.174Z,1008.90
2024-02-04T10:55:46.131Z,1008.85
2024-02-04T10:56:46.175Z,1008.80
2024-02-04T10:57:46.131Z,1008.89
2024-02-04T10:58:46.064Z,1008.73
2024-02-04T10:59:46.048Z,1008.81
2024-02-04T11:00:46.123Z,1008.80
2024-02-04T11:01:46.122Z,1008.89
2024-02-04T11:02:46.036Z,1008.82
2024-02-04T11:03:46.138Z,1008.89
2024-02-04T11:04:46.107Z,1008.95
2024-02-04T11:05:46.017Z,1008.83
2024-02-04T11:06:46.011Z,1008.89
2024-02-04T11:07:45.994Z,1008.93
2024-02-04T11:08:45.974Z,1008.96
2024-02-04T11:09:45.962Z,1008.96
2024-02-04T11:10:45.916Z,1008.95
2024-02-04T11:11:45.913Z,1008.96
2024-02-04T11:12:45.954Z,1008.82
2024-02-04T11:13:45.904Z,1008.90
2024-02-04T11:14:45.876Z,1008.98
2024-02-04T11:15:46.120Z,1008.92
2024-02-04T11:16:45.905Z,1008.89
2024-02-04T11:17:45.866Z,1008.91
2024-02-04T11:18:45.909Z,1008.89
2024-02-04T11:19:46.021Z,1008.78
2024-02-04T11:20:45.803Z,1008.86
2024-02-04T11:21:45.809Z,1008.86
2024-02-04T11:22:45.769Z,1008.83
2024-02-04T11:23:45.785Z,1008.90
2024-02-04T11:24:45.765Z,1008.89
2024-02-04T11:25:45.743Z,1008.70
2024-02-04T11:26:45.736Z,1008.79
2024-02-04T11:27:45.797Z,1008.90
2024-02-04T11:28:45.833Z,1008.81
2024-02-04T11:29:45.710Z,1008.58
2024-02-04T11:30:45.729Z,1008.76
2024-02-04T11:31:45.703Z,1008.62
2024-02-04T11:32:45.780Z,1008.64
2024-02-04T11:33:45.776Z,1008.67
2024-02-04T11:34:45.784Z,1008.56
2024-02-04T11:35:45.864Z,1008.54
2024-02-04T11:36:45.725Z,1008.58
2024-02-04T11:37:45.720Z,1008.60
2024-02-04T11:38:45.654Z,1008.56
2024-02-04T11:39:45.615Z,1008.53
2024-02-04T11:40:45.686Z,1008.51
2024-02-04T11:41:45.584Z,1008.55
2024-02-04T11:42:45.592Z,1008.51
2024-02-04T11:43:45.559Z,1008.56
2024-02-04T11:44:45.526Z,1008.53
2024-02-04T11:45:45.619Z,1008.59
2024-02-04T11:46:45.595Z,1008.59
2024-02-04T11:47:45.661Z,1008.43
2024-02-04T11:48:45.633Z,1008.47
2024-02-04T11:49:45.621Z,1008.40
2024-02-04T11:50:45.588Z,1008.36
2024-02-04T11:51:45.486Z,1008.38
2024-02-04T11:52:45.495Z,1008.45
2024-02-04T11:53:45.409Z,1008.43
2024-02-04T11:54:45.437Z,1008.34
2024-02-04T11:55:46.124Z,1008.34
2024-02-04T11:56:45.393Z,1008.35
2024-02-04T11:57:45.494Z,1008.25
2024-02-04T11:58:45.374Z,1008.27
2024-02-04T11:59:45.332Z,1008.28
2024-02-04T12:00:45.791Z,1008.20
2024-02-04T12:01:45.404Z,1008.21
2024-02-04T12:02:45.309Z,1008.18
2024-02-04T12:03:45.333Z,1008.28
2024-02-04T12:04:45.318Z,1008.25
2024-02-04T12:05:45.283Z,1008.26